sensor_id;sensor_type;location;lat;lon;timestamp;P1;durP1;ratioP1;P2;durP2;ratioP2
19617;SDS011;9956;51.006;13.670;2023-05-19T00:04:07;5.95;;;3.70;;
19617;SDS011;9956;51.006;13.670;2023-05-19T00:09:08;5.47;;;4.13;;
19617;SDS011;9956;51.006;13.670;2023-05-19T00:14:10;6.93;;;4.68;;
19617;SDS011;9956;51.006;13.670;2023-05-19T00:19:11;6.75;;;4.30;;
19617;SDS011;9956;51.006;13.670;2023-05-19T00:24:11;7.53;;;4.82;;
19617;SDS011;9956;51.006;13.670;2023-05-19T00:29:12;8.38;;;5.07;;
19617;SDS011;9956;51.006;13.670;2023-05-19T00:34:17;7.38;;;5.25;;
19617;SDS011;9956;51.006;13.670;2023-05-19T00:39:18;6.95;;;4.35;;
19617;SDS011;9956;51.006;13.670;2023-05-19T00:44:18;7.68;;;4.63;;
19617;SDS011;9956;51.006;13.670;2023-05-19T00:49:18;7.60;;;4.05;;
19617;SDS011;9956;51.006;13.670;2023-05-19T00:54:19;7.45;;;4.13;;
19617;SDS011;9956;51.006;13.670;2023-05-19T00:59:20;6.25;;;3.88;;
19617;SDS011;9956;51.006;13.670;2023-05-19T01:04:21;7.20;;;4.25;;
19617;SDS011;9956;51.006;13.670;2023-05-19T01:09:24;7.07;;;4.78;;
19617;SDS011;9956;51.006;13.670;2023-05-19T01:14:24;5.13;;;4.18;;
19617;SDS011;9956;51.006;13.670;2023-05-19T01:19:30;7.55;;;4.50;;
19617;SDS011;9956;51.006;13.670;2023-05-19T01:30:25;5.68;;;4.43;;
19617;SDS011;9956;51.006;13.670;2023-05-19T01:35:43;6.72;;;5.20;;
19617;SDS011;9956;51.006;13.670;2023-05-19T01:40:45;6.97;;;4.80;;
19617;SDS011;9956;51.006;13.670;2023-05-19T01:45:47;7.68;;;4.53;;
19617;SDS011;9956;51.006;13.670;2023-05-19T01:50:48;5.18;;;4.35;;
19617;SDS011;9956;51.006;13.670;2023-05-19T01:55:50;5.70;;;4.68;;
19617;SDS011;9956;51.006;13.670;2023-05-19T02:00:57;6.60;;;4.53;;
19617;SDS011;9956;51.006;13.670;2023-05-19T02:11:51;7.03;;;5.18;;
19617;SDS011;9956;51.006;13.670;2023-05-19T02:16:54;7.45;;;5.30;;
19617;SDS011;9956;51.006;13.670;2023-05-19T02:21:56;6.75;;;4.82;;
19617;SDS011;9956;51.006;13.670;2023-05-19T02:26:57;9.90;;;4.80;;
19617;SDS011;9956;51.006;13.670;2023-05-19T02:31:59;7.28;;;4.70;;
19617;SDS011;9956;51.006;13.670;2023-05-19T02:37:00;8.27;;;4.97;;
19617;SDS011;9956;51.006;13.670;2023-05-19T02:42:01;6.93;;;4.47;;
19617;SDS011;9956;51.006;13.670;2023-05-19T02:47:01;7.57;;;4.55;;
19617;SDS011;9956;51.006;13.670;2023-05-19T02:52:02;6.45;;;4.68;;
19617;SDS011;9956;51.006;13.670;2023-05-19T02:57:03;7.05;;;5.38;;
19617;SDS011;9956;51.006;13.670;2023-05-19T03:02:04;7.78;;;4.97;;
19617;SDS011;9956;51.006;13.670;2023-05-19T03:07:04;7.70;;;4.85;;
19617;SDS011;9956;51.006;13.670;2023-05-19T03:12:05;6.28;;;4.95;;
19617;SDS011;9956;51.006;13.670;2023-05-19T03:17:06;8.15;;;5.15;;
19617;SDS011;9956;51.006;13.670;2023-05-19T03:22:07;7.65;;;5.10;;
19617;SDS011;9956;51.006;13.670;2023-05-19T03:27:09;8.07;;;5.00;;
19617;SDS011;9956;51.006;13.670;2023-05-19T03:32:10;9.95;;;5.80;;
19617;SDS011;9956;51.006;13.670;2023-05-19T03:37:11;6.00;;;4.70;;
19617;SDS011;9956;51.006;13.670;2023-05-19T03:42:13;6.38;;;5.10;;
19617;SDS011;9956;51.006;13.670;2023-05-19T03:47:14;7.53;;;5.47;;
19617;SDS011;9956;51.006;13.670;2023-05-19T03:52:37;6.88;;;5.45;;
19617;SDS011;9956;51.006;13.670;2023-05-19T03:57:46;11.23;;;5.38;;
19617;SDS011;9956;51.006;13.670;2023-05-19T04:02:47;5.28;;;4.75;;
19617;SDS011;9956;51.006;13.670;2023-05-19T04:07:48;7.28;;;5.13;;
19617;SDS011;9956;51.006;13.670;2023-05-19T04:12:48;6.97;;;5.40;;
19617;SDS011;9956;51.006;13.670;2023-05-19T04:17:49;8.10;;;5.25;;
19617;SDS011;9956;51.006;13.670;2023-05-19T04:22:49;7.95;;;4.55;;
19617;SDS011;9956;51.006;13.670;2023-05-19T04:27:50;6.20;;;4.55;;
19617;SDS011;9956;51.006;13.670;2023-05-19T04:32:52;6.32;;;4.45;;
19617;SDS011;9956;51.006;13.670;2023-05-19T04:37:52;5.50;;;4.47;;
19617;SDS011;9956;51.006;13.670;2023-05-19T04:42:58;7.35;;;4.85;;
19617;SDS011;9956;51.006;13.670;2023-05-19T04:48:05;6.97;;;4.30;;
19617;SDS011;9956;51.006;13.670;2023-05-19T04:53:06;7.32;;;4.57;;
19617;SDS011;9956;51.006;13.670;2023-05-19T04:58:07;7.75;;;4.88;;
19617;SDS011;9956;51.006;13.670;2023-05-19T05:03:07;8.05;;;4.78;;
19617;SDS011;9956;51.006;13.670;2023-05-19T05:08:08;5.85;;;4.25;;
19617;SDS011;9956;51.006;13.670;2023-05-19T05:13:14;4.40;;;3.97;;
19617;SDS011;9956;51.006;13.670;2023-05-19T05:18:15;6.45;;;4.30;;
19617;SDS011;9956;51.006;13.670;2023-05-19T05:23:16;5.57;;;3.58;;
19617;SDS011;9956;51.006;13.670;2023-05-19T05:28:19;6.93;;;4.50;;
19617;SDS011;9956;51.006;13.670;2023-05-19T05:33:21;6.60;;;4.53;;
19617;SDS011;9956;51.006;13.670;2023-05-19T05:38:24;6.05;;;4.00;;
19617;SDS011;9956;51.006;13.670;2023-05-19T05:43:25;5.10;;;3.70;;
19617;SDS011;9956;51.006;13.670;2023-05-19T05:48:31;5.55;;;4.13;;
19617;SDS011;9956;51.006;13.670;2023-05-19T05:53:33;5.70;;;4.10;;
19617;SDS011;9956;51.006;13.670;2023-05-19T05:58:37;4.75;;;4.18;;
19617;SDS011;9956;51.006;13.670;2023-05-19T06:03:40;5.75;;;3.60;;
19617;SDS011;9956;51.006;13.670;2023-05-19T06:08:46;5.80;;;4.00;;
19617;SDS011;9956;51.006;13.670;2023-05-19T06:13:47;5.55;;;3.42;;
19617;SDS011;9956;51.006;13.670;2023-05-19T06:18:57;5.00;;;3.45;;
19617;SDS011;9956;51.006;13.670;2023-05-19T06:23:57;3.67;;;3.15;;
19617;SDS011;9956;51.006;13.670;2023-05-19T06:28:59;4.88;;;3.78;;
19617;SDS011;9956;51.006;13.670;2023-05-19T06:34:00;5.15;;;3.28;;
19617;SDS011;9956;51.006;13.670;2023-05-19T06:39:01;5.80;;;3.10;;
19617;SDS011;9956;51.006;13.670;2023-05-19T06:49:07;5.20;;;3.00;;
19617;SDS011;9956;51.006;13.670;2023-05-19T06:54:13;5.20;;;3.42;;
19617;SDS011;9956;51.006;13.670;2023-05-19T06:59:15;6.93;;;3.50;;
19617;SDS011;9956;51.006;13.670;2023-05-19T07:04:17;5.13;;;3.38;;
19617;SDS011;9956;51.006;13.670;2023-05-19T07:09:18;4.20;;;3.13;;
19617;SDS011;9956;51.006;13.670;2023-05-19T07:14:20;4.47;;;3.35;;
19617;SDS011;9956;51.006;13.670;2023-05-19T07:19:21;4.65;;;3.67;;
19617;SDS011;9956;51.006;13.670;2023-05-19T07:24:23;5.43;;;3.45;;
19617;SDS011;9956;51.006;13.670;2023-05-19T07:29:24;6.38;;;3.85;;
19617;SDS011;9956;51.006;13.670;2023-05-19T07:34:24;5.13;;;3.20;;
19617;SDS011;9956;51.006;13.670;2023-05-19T07:39:25;13.80;;;4.70;;
19617;SDS011;9956;51.006;13.670;2023-05-19T07:44:28;6.53;;;3.85;;
19617;SDS011;9956;51.006;13.670;2023-05-19T07:49:30;7.78;;;3.50;;
19617;SDS011;9956;51.006;13.670;2023-05-19T07:54:30;6.15;;;4.20;;
19617;SDS011;9956;51.006;13.670;2023-05-19T07:59:31;4.72;;;4.10;;
19617;SDS011;9956;51.006;13.670;2023-05-19T08:04:31;5.15;;;3.50;;
19617;SDS011;9956;51.006;13.670;2023-05-19T08:09:32;3.60;;;3.13;;
19617;SDS011;9956;51.006;13.670;2023-05-19T08:14:32;4.28;;;3.08;;
19617;SDS011;9956;51.006;13.670;2023-05-19T08:19:34;4.28;;;3.00;;
19617;SDS011;9956;51.006;13.670;2023-05-19T08:24:35;4.78;;;3.15;;
19617;SDS011;9956;51.006;13.670;2023-05-19T08:29:35;3.75;;;2.80;;
19617;SDS011;9956;51.006;13.670;2023-05-19T08:34:41;4.38;;;2.25;;
19617;SDS011;9956;51.006;13.670;2023-05-19T08:39:42;5.50;;;2.92;;
19617;SDS011;9956;51.006;13.670;2023-05-19T08:44:42;4.00;;;2.92;;
19617;SDS011;9956;51.006;13.670;2023-05-19T08:49:43;21.33;;;3.20;;
19617;SDS011;9956;51.006;13.670;2023-05-19T08:54:46;3.63;;;2.33;;
19617;SDS011;9956;51.006;13.670;2023-05-19T08:59:50;2.42;;;2.00;;
19617;SDS011;9956;51.006;13.670;2023-05-19T09:04:51;4.05;;;2.22;;
19617;SDS011;9956;51.006;13.670;2023-05-19T09:09:52;5.40;;;2.88;;
19617;SDS011;9956;51.006;13.670;2023-05-19T09:14:52;12.18;;;3.13;;
19617;SDS011;9956;51.006;13.670;2023-05-19T09:19:53;6.47;;;3.00;;
19617;SDS011;9956;51.006;13.670;2023-05-19T09:24:54;9.55;;;2.75;;
19617;SDS011;9956;51.006;13.670;2023-05-19T09:29:57;13.93;;;3.47;;
19617;SDS011;9956;51.006;13.670;2023-05-19T09:35:04;5.80;;;3.15;;
19617;SDS011;9956;51.006;13.670;2023-05-19T09:40:06;6.53;;;2.95;;
19617;SDS011;9956;51.006;13.670;2023-05-19T09:45:12;5.35;;;2.70;;
19617;SDS011;9956;51.006;13.670;2023-05-19T09:50:12;6.85;;;2.90;;
19617;SDS011;9956;51.006;13.670;2023-05-19T09:55:13;9.10;;;3.60;;
19617;SDS011;9956;51.006;13.670;2023-05-19T10:00:14;9.50;;;2.95;;
19617;SDS011;9956;51.006;13.670;2023-05-19T10:05:25;3.80;;;2.95;;
19617;SDS011;9956;51.006;13.670;2023-05-19T10:10:26;17.52;;;3.83;;
19617;SDS011;9956;51.006;13.670;2023-05-19T10:15:27;4.82;;;3.00;;
19617;SDS011;9956;51.006;13.670;2023-05-19T10:20:28;8.45;;;3.58;;
19617;SDS011;9956;51.006;13.670;2023-05-19T10:25:30;5.50;;;3.53;;
19617;SDS011;9956;51.006;13.670;2023-05-19T10:30:33;13.93;;;3.60;;
19617;SDS011;9956;51.006;13.670;2023-05-19T10:41:12;7.03;;;3.40;;
19617;SDS011;9956;51.006;13.670;2023-05-19T10:46:22;4.63;;;2.78;;
19617;SDS011;9956;51.006;13.670;2023-05-19T10:51:27;4.60;;;3.08;;
19617;SDS011;9956;51.006;13.670;2023-05-19T10:56:31;3.55;;;2.58;;
19617;SDS011;9956;51.006;13.670;2023-05-19T11:01:33;7.45;;;3.30;;
19617;SDS011;9956;51.006;13.670;2023-05-19T11:06:34;5.47;;;2.78;;
19617;SDS011;9956;51.006;13.670;2023-05-19T11:11:45;3.75;;;2.80;;
19617;SDS011;9956;51.006;13.670;2023-05-19T11:16:48;3.97;;;2.70;;
19617;SDS011;9956;51.006;13.670;2023-05-19T11:21:49;4.35;;;2.50;;
19617;SDS011;9956;51.006;13.670;2023-05-19T11:26:51;3.13;;;2.20;;
19617;SDS011;9956;51.006;13.670;2023-05-19T11:31:53;4.15;;;2.58;;
19617;SDS011;9956;51.006;13.670;2023-05-19T11:36:54;3.88;;;2.65;;
19617;SDS011;9956;51.006;13.670;2023-05-19T11:41:55;3.35;;;2.40;;
19617;SDS011;9956;51.006;13.670;2023-05-19T11:46:55;3.35;;;2.88;;
19617;SDS011;9956;51.006;13.670;2023-05-19T11:51:56;3.25;;;2.30;;
19617;SDS011;9956;51.006;13.670;2023-05-19T11:57:00;3.60;;;2.20;;
19617;SDS011;9956;51.006;13.670;2023-05-19T12:07:22;2.80;;;2.30;;
19617;SDS011;9956;51.006;13.670;2023-05-19T12:12:23;3.45;;;2.22;;
19617;SDS011;9956;51.006;13.670;2023-05-19T12:17:24;3.20;;;2.47;;
19617;SDS011;9956;51.006;13.670;2023-05-19T12:22:24;4.20;;;2.75;;
19617;SDS011;9956;51.006;13.670;2023-05-19T12:27:26;3.95;;;2.58;;
19617;SDS011;9956;51.006;13.670;2023-05-19T12:32:26;3.67;;;2.30;;
19617;SDS011;9956;51.006;13.670;2023-05-19T12:37:30;7.43;;;2.58;;
19617;SDS011;9956;51.006;13.670;2023-05-19T12:42:34;2.72;;;2.20;;
19617;SDS011;9956;51.006;13.670;2023-05-19T12:47:35;5.82;;;2.55;;
19617;SDS011;9956;51.006;13.670;2023-05-19T12:52:45;4.57;;;2.78;;
19617;SDS011;9956;51.006;13.670;2023-05-19T12:57:47;3.65;;;2.80;;
19617;SDS011;9956;51.006;13.670;2023-05-19T13:02:58;5.97;;;3.00;;
19617;SDS011;9956;51.006;13.670;2023-05-19T13:08:04;3.30;;;3.00;;
19617;SDS011;9956;51.006;13.670;2023-05-19T13:13:06;3.95;;;3.00;;
19617;SDS011;9956;51.006;13.670;2023-05-19T13:18:08;4.95;;;2.50;;
19617;SDS011;9956;51.006;13.670;2023-05-19T13:23:10;5.70;;;3.40;;
19617;SDS011;9956;51.006;13.670;2023-05-19T13:28:11;5.80;;;3.10;;
19617;SDS011;9956;51.006;13.670;2023-05-19T13:33:11;3.58;;;3.22;;
19617;SDS011;9956;51.006;13.670;2023-05-19T13:38:12;4.07;;;3.67;;
19617;SDS011;9956;51.006;13.670;2023-05-19T13:43:13;6.72;;;3.65;;
19617;SDS011;9956;51.006;13.670;2023-05-19T13:48:14;4.85;;;4.35;;
19617;SDS011;9956;51.006;13.670;2023-05-19T13:53:14;4.03;;;3.33;;
19617;SDS011;9956;51.006;13.670;2023-05-19T13:58:15;4.60;;;3.30;;
19617;SDS011;9956;51.006;13.670;2023-05-19T14:03:16;8.45;;;3.20;;
19617;SDS011;9956;51.006;13.670;2023-05-19T14:08:18;4.20;;;3.33;;
19617;SDS011;9956;51.006;13.670;2023-05-19T14:13:18;6.53;;;4.53;;
19617;SDS011;9956;51.006;13.670;2023-05-19T14:18:19;7.35;;;4.07;;
19617;SDS011;9956;51.006;13.670;2023-05-19T14:23:20;4.30;;;3.90;;
19617;SDS011;9956;51.006;13.670;2023-05-19T14:28:20;4.75;;;4.25;;
19617;SDS011;9956;51.006;13.670;2023-05-19T14:33:21;5.88;;;4.13;;
19617;SDS011;9956;51.006;13.670;2023-05-19T14:38:21;4.93;;;4.13;;
19617;SDS011;9956;51.006;13.670;2023-05-19T14:43:22;5.93;;;4.75;;
19617;SDS011;9956;51.006;13.670;2023-05-19T14:48:22;6.53;;;4.32;;
19617;SDS011;9956;51.006;13.670;2023-05-19T14:53:23;7.03;;;4.25;;
19617;SDS011;9956;51.006;13.670;2023-05-19T14:58:23;6.63;;;4.57;;
19617;SDS011;9956;51.006;13.670;2023-05-19T15:03:24;6.00;;;5.22;;
19617;SDS011;9956;51.006;13.670;2023-05-19T15:08:24;4.78;;;4.38;;
19617;SDS011;9956;51.006;13.670;2023-05-19T15:13:25;4.18;;;3.78;;
19617;SDS011;9956;51.006;13.670;2023-05-19T15:18:25;5.15;;;3.92;;
19617;SDS011;9956;51.006;13.670;2023-05-19T15:23:26;5.72;;;4.25;;
19617;SDS011;9956;51.006;13.670;2023-05-19T15:28:26;5.43;;;3.70;;
19617;SDS011;9956;51.006;13.670;2023-05-19T15:33:27;3.92;;;3.53;;
19617;SDS011;9956;51.006;13.670;2023-05-19T15:38:27;5.32;;;3.80;;
19617;SDS011;9956;51.006;13.670;2023-05-19T15:43:27;5.53;;;3.90;;
19617;SDS011;9956;51.006;13.670;2023-05-19T15:48:28;5.85;;;3.80;;
19617;SDS011;9956;51.006;13.670;2023-05-19T15:53:28;5.80;;;3.42;;
19617;SDS011;9956;51.006;13.670;2023-05-19T15:58:29;5.13;;;4.18;;
19617;SDS011;9956;51.006;13.670;2023-05-19T16:03:30;7.20;;;4.40;;
19617;SDS011;9956;51.006;13.670;2023-05-19T16:08:30;5.30;;;4.18;;
19617;SDS011;9956;51.006;13.670;2023-05-19T16:13:31;5.18;;;4.53;;
19617;SDS011;9956;51.006;13.670;2023-05-19T16:18:32;9.10;;;5.82;;
19617;SDS011;9956;51.006;13.670;2023-05-19T16:23:33;9.63;;;5.55;;
19617;SDS011;9956;51.006;13.670;2023-05-19T16:28:33;8.10;;;5.25;;
19617;SDS011;9956;51.006;13.670;2023-05-19T16:33:33;6.28;;;4.82;;
19617;SDS011;9956;51.006;13.670;2023-05-19T16:38:34;5.50;;;4.68;;
19617;SDS011;9956;51.006;13.670;2023-05-19T16:43:34;6.03;;;5.43;;
19617;SDS011;9956;51.006;13.670;2023-05-19T16:48:35;6.75;;;5.32;;
19617;SDS011;9956;51.006;13.670;2023-05-19T16:53:38;8.13;;;5.28;;
19617;SDS011;9956;51.006;13.670;2023-05-19T16:58:39;6.28;;;5.20;;
19617;SDS011;9956;51.006;13.670;2023-05-19T17:03:39;7.75;;;5.78;;
19617;SDS011;9956;51.006;13.670;2023-05-19T17:08:40;5.07;;;4.57;;
19617;SDS011;9956;51.006;13.670;2023-05-19T17:13:40;7.47;;;5.35;;
19617;SDS011;9956;51.006;13.670;2023-05-19T17:18:42;5.60;;;5.10;;
19617;SDS011;9956;51.006;13.670;2023-05-19T17:23:43;6.25;;;5.45;;
19617;SDS011;9956;51.006;13.670;2023-05-19T17:28:43;7.55;;;4.97;;
19617;SDS011;9956;51.006;13.670;2023-05-19T17:33:44;6.07;;;4.97;;
19617;SDS011;9956;51.006;13.670;2023-05-19T17:38:45;5.95;;;4.65;;
19617;SDS011;9956;51.006;13.670;2023-05-19T17:43:45;6.40;;;4.85;;
19617;SDS011;9956;51.006;13.670;2023-05-19T17:48:46;5.28;;;4.60;;
19617;SDS011;9956;51.006;13.670;2023-05-19T17:53:46;9.00;;;5.45;;
19617;SDS011;9956;51.006;13.670;2023-05-19T17:58:47;6.97;;;5.00;;
19617;SDS011;9956;51.006;13.670;2023-05-19T18:03:48;7.53;;;4.68;;
19617;SDS011;9956;51.006;13.670;2023-05-19T18:08:49;6.25;;;4.93;;
19617;SDS011;9956;51.006;13.670;2023-05-19T18:13:53;5.40;;;4.90;;
19617;SDS011;9956;51.006;13.670;2023-05-19T18:18:54;7.75;;;4.93;;
19617;SDS011;9956;51.006;13.670;2023-05-19T18:23:54;6.75;;;4.43;;
19617;SDS011;9956;51.006;13.670;2023-05-19T18:28:55;5.28;;;4.30;;
19617;SDS011;9956;51.006;13.670;2023-05-19T18:34:01;5.70;;;4.70;;
19617;SDS011;9956;51.006;13.670;2023-05-19T18:39:03;7.88;;;5.00;;
19617;SDS011;9956;51.006;13.670;2023-05-19T18:44:03;6.22;;;5.40;;
19617;SDS011;9956;51.006;13.670;2023-05-19T18:49:06;6.65;;;5.50;;
19617;SDS011;9956;51.006;13.670;2023-05-19T18:54:07;7.25;;;5.85;;
19617;SDS011;9956;51.006;13.670;2023-05-19T18:59:08;5.60;;;5.05;;
19617;SDS011;9956;51.006;13.670;2023-05-19T19:04:11;6.18;;;5.57;;
19617;SDS011;9956;51.006;13.670;2023-05-19T19:09:13;8.10;;;5.85;;
19617;SDS011;9956;51.006;13.670;2023-05-19T19:14:14;7.57;;;5.72;;
19617;SDS011;9956;51.006;13.670;2023-05-19T19:19:14;6.35;;;5.75;;
19617;SDS011;9956;51.006;13.670;2023-05-19T19:24:15;5.55;;;5.05;;
19617;SDS011;9956;51.006;13.670;2023-05-19T19:29:15;7.22;;;5.80;;
19617;SDS011;9956;51.006;13.670;2023-05-19T19:34:17;8.52;;;5.88;;
19617;SDS011;9956;51.006;13.670;2023-05-19T19:39:18;10.07;;;6.57;;
19617;SDS011;9956;51.006;13.670;2023-05-19T19:44:19;6.95;;;6.18;;
19617;SDS011;9956;51.006;13.670;2023-05-19T19:49:21;8.10;;;6.50;;
19617;SDS011;9956;51.006;13.670;2023-05-19T19:54:22;6.97;;;6.38;;
19617;SDS011;9956;51.006;13.670;2023-05-19T19:59:23;8.73;;;7.45;;
19617;SDS011;9956;51.006;13.670;2023-05-19T20:04:24;8.77;;;7.88;;
19617;SDS011;9956;51.006;13.670;2023-05-19T20:09:24;10.05;;;7.80;;
19617;SDS011;9956;51.006;13.670;2023-05-19T20:14:25;9.68;;;7.82;;
19617;SDS011;9956;51.006;13.670;2023-05-19T20:19:25;10.00;;;8.30;;
19617;SDS011;9956;51.006;13.670;2023-05-19T20:24:25;11.00;;;8.93;;
19617;SDS011;9956;51.006;13.670;2023-05-19T20:29:26;12.43;;;8.80;;
19617;SDS011;9956;51.006;13.670;2023-05-19T20:34:27;10.95;;;9.55;;
19617;SDS011;9956;51.006;13.670;2023-05-19T20:39:27;9.88;;;8.18;;
19617;SDS011;9956;51.006;13.670;2023-05-19T20:44:28;11.20;;;8.57;;
19617;SDS011;9956;51.006;13.670;2023-05-19T20:49:28;10.60;;;9.38;;
19617;SDS011;9956;51.006;13.670;2023-05-19T20:54:31;12.20;;;9.80;;
19617;SDS011;9956;51.006;13.670;2023-05-19T20:59:32;11.30;;;9.52;;
19617;SDS011;9956;51.006;13.670;2023-05-19T21:04:32;11.80;;;9.77;;
19617;SDS011;9956;51.006;13.670;2023-05-19T21:09:33;15.90;;;12.35;;
19617;SDS011;9956;51.006;13.670;2023-05-19T21:14:33;12.23;;;10.15;;
19617;SDS011;9956;51.006;13.670;2023-05-19T21:19:35;11.98;;;10.70;;
19617;SDS011;9956;51.006;13.670;2023-05-19T21:24:36;12.00;;;10.13;;
19617;SDS011;9956;51.006;13.670;2023-05-19T21:29:36;14.27;;;10.77;;
19617;SDS011;9956;51.006;13.670;2023-05-19T21:34:37;11.20;;;9.82;;
19617;SDS011;9956;51.006;13.670;2023-05-19T21:39:38;13.07;;;10.40;;
19617;SDS011;9956;51.006;13.670;2023-05-19T21:44:38;13.20;;;10.88;;
19617;SDS011;9956;51.006;13.670;2023-05-19T21:49:38;13.55;;;11.07;;
19617;SDS011;9956;51.006;13.670;2023-05-19T21:54:39;12.55;;;10.98;;
19617;SDS011;9956;51.006;13.670;2023-05-19T21:59:40;11.93;;;10.73;;
19617;SDS011;9956;51.006;13.670;2023-05-19T22:04:40;11.82;;;10.73;;
19617;SDS011;9956;51.006;13.670;2023-05-19T22:09:42;13.35;;;11.95;;
19617;SDS011;9956;51.006;13.670;2023-05-19T22:14:42;12.70;;;11.38;;
19617;SDS011;9956;51.006;13.670;2023-05-19T22:19:43;12.85;;;11.48;;
19617;SDS011;9956;51.006;13.670;2023-05-19T22:24:50;12.77;;;11.23;;
19617;SDS011;9956;51.006;13.670;2023-05-19T22:29:51;13.20;;;11.90;;
19617;SDS011;9956;51.006;13.670;2023-05-19T22:34:51;13.40;;;12.07;;
19617;SDS011;9956;51.006;13.670;2023-05-19T22:39:52;14.55;;;12.85;;
19617;SDS011;9956;51.006;13.670;2023-05-19T22:44:52;13.65;;;11.95;;
19617;SDS011;9956;51.006;13.670;2023-05-19T22:49:53;13.13;;;11.63;;
19617;SDS011;9956;51.006;13.670;2023-05-19T22:54:53;14.13;;;12.68;;
19617;SDS011;9956;51.006;13.670;2023-05-19T22:59:53;13.68;;;12.27;;
19617;SDS011;9956;51.006;13.670;2023-05-19T23:04:54;14.65;;;12.13;;
19617;SDS011;9956;51.006;13.670;2023-05-19T23:09:54;12.82;;;11.52;;
19617;SDS011;9956;51.006;13.670;2023-05-19T23:14:55;13.98;;;12.23;;
19617;SDS011;9956;51.006;13.670;2023-05-19T23:19:55;14.00;;;12.50;;
19617;SDS011;9956;51.006;13.670;2023-05-19T23:24:56;13.48;;;12.18;;
19617;SDS011;9956;51.006;13.670;2023-05-19T23:29:56;13.40;;;12.07;;
19617;SDS011;9956;51.006;13.670;2023-05-19T23:34:57;15.02;;;13.45;;
19617;SDS011;9956;51.006;13.670;2023-05-19T23:40:08;17.52;;;14.10;;
19617;SDS011;9956;51.006;13.670;2023-05-19T23:45:09;15.10;;;13.48;;
19617;SDS011;9956;51.006;13.670;2023-05-19T23:50:10;14.40;;;12.98;;
19617;SDS011;9956;51.006;13.670;2023-05-19T23:55:10;15.40;;;13.90;;
